sensor_id;sensor_type;location;lat;lon;timestamp;P1;durP1;ratioP1;P2;durP2;ratioP2
4837;SDS011;2433;48.768;9.154;2024-01-10T00:00:13;5.40;;;3.33;;
4837;SDS011;2433;48.768;9.154;2024-01-10T00:02:39;5.88;;;4.20;;
4837;SDS011;2433;48.768;9.154;2024-01-10T00:05:05;7.13;;;4.20;;
4837;SDS011;2433;48.768;9.154;2024-01-10T00:07:31;6.90;;;3.05;;
4837;SDS011;2433;48.768;9.154;2024-01-10T00:09:57;7.70;;;2.87;;
4837;SDS011;2433;48.768;9.154;2024-01-10T00:12:25;5.82;;;3.42;;
4837;SDS011;2433;48.768;9.154;2024-01-10T00:14:50;6.37;;;3.53;;
4837;SDS011;2433;48.768;9.154;2024-01-10T00:17:16;5.30;;;3.40;;
4837;SDS011;2433;48.768;9.154;2024-01-10T00:19:41;12.53;;;2.20;;
4837;SDS011;2433;48.768;9.154;2024-01-10T00:22:07;1.47;;;1.23;;
4837;SDS011;2433;48.768;9.154;2024-01-10T00:24:33;5.60;;;3.47;;
4837;SDS011;2433;48.768;9.154;2024-01-10T00:26:58;5.50;;;2.47;;
4837;SDS011;2433;48.768;9.154;2024-01-10T00:29:24;5.53;;;3.80;;
4837;SDS011;2433;48.768;9.154;2024-01-10T00:31:49;4.67;;;3.73;;
4837;SDS011;2433;48.768;9.154;2024-01-10T00:34:17;3.80;;;2.65;;
4837;SDS011;2433;48.768;9.154;2024-01-10T00:36:43;0.70;;;0.70;;
4837;SDS011;2433;48.768;9.154;2024-01-10T00:39:09;5.13;;;3.00;;
4837;SDS011;2433;48.768;9.154;2024-01-10T00:41:34;4.43;;;3.23;;
4837;SDS011;2433;48.768;9.154;2024-01-10T00:44:00;2.57;;;2.30;;
4837;SDS011;2433;48.768;9.154;2024-01-10T00:46:25;4.83;;;3.07;;
4837;SDS011;2433;48.768;9.154;2024-01-10T00:48:51;3.50;;;3.20;;
4837;SDS011;2433;48.768;9.154;2024-01-10T00:51:16;1.87;;;1.67;;
4837;SDS011;2433;48.768;9.154;2024-01-10T00:53:42;4.40;;;3.80;;
4837;SDS011;2433;48.768;9.154;2024-01-10T00:56:07;4.90;;;3.07;;
4837;SDS011;2433;48.768;9.154;2024-01-10T00:58:33;5.77;;;3.90;;
4837;SDS011;2433;48.768;9.154;2024-01-10T01:00:58;3.93;;;2.90;;
4837;SDS011;2433;48.768;9.154;2024-01-10T01:03:24;4.00;;;2.50;;
4837;SDS011;2433;48.768;9.154;2024-01-10T01:05:50;2.53;;;1.73;;
4837;SDS011;2433;48.768;9.154;2024-01-10T01:08:15;3.93;;;2.70;;
4837;SDS011;2433;48.768;9.154;2024-01-10T01:10:41;7.47;;;3.80;;
4837;SDS011;2433;48.768;9.154;2024-01-10T01:13:06;4.83;;;2.40;;
4837;SDS011;2433;48.768;9.154;2024-01-10T01:15:32;0.90;;;0.77;;
4837;SDS011;2433;48.768;9.154;2024-01-10T01:17:58;4.60;;;2.87;;
4837;SDS011;2433;48.768;9.154;2024-01-10T01:20:23;4.60;;;2.93;;
4837;SDS011;2433;48.768;9.154;2024-01-10T01:22:49;3.10;;;2.57;;
4837;SDS011;2433;48.768;9.154;2024-01-10T01:25:14;6.47;;;3.60;;
4837;SDS011;2433;48.768;9.154;2024-01-10T01:27:40;4.60;;;3.30;;
4837;SDS011;2433;48.768;9.154;2024-01-10T01:30:05;3.67;;;3.37;;
4837;SDS011;2433;48.768;9.154;2024-01-10T01:32:31;4.57;;;2.85;;
4837;SDS011;2433;48.768;9.154;2024-01-10T01:34:57;8.70;;;2.50;;
4837;SDS011;2433;48.768;9.154;2024-01-10T01:37:22;5.60;;;2.57;;
4837;SDS011;2433;48.768;9.154;2024-01-10T01:39:48;7.20;;;3.40;;
4837;SDS011;2433;48.768;9.154;2024-01-10T01:42:13;8.70;;;3.70;;
4837;SDS011;2433;48.768;9.154;2024-01-10T01:44:39;6.07;;;4.47;;
4837;SDS011;2433;48.768;9.154;2024-01-10T01:47:04;6.50;;;3.00;;
4837;SDS011;2433;48.768;9.154;2024-01-10T01:49:30;2.83;;;2.63;;
4837;SDS011;2433;48.768;9.154;2024-01-10T01:51:56;4.60;;;2.60;;
4837;SDS011;2433;48.768;9.154;2024-01-10T01:54:21;3.70;;;2.60;;
4837;SDS011;2433;48.768;9.154;2024-01-10T01:56:48;3.08;;;2.35;;
4837;SDS011;2433;48.768;9.154;2024-01-10T01:59:14;8.73;;;3.88;;
4837;SDS011;2433;48.768;9.154;2024-01-10T02:01:40;3.70;;;2.90;;
4837;SDS011;2433;48.768;9.154;2024-01-10T02:04:05;3.63;;;2.80;;
4837;SDS011;2433;48.768;9.154;2024-01-10T02:06:31;3.87;;;3.47;;
4837;SDS011;2433;48.768;9.154;2024-01-10T02:08:57;2.83;;;2.57;;
4837;SDS011;2433;48.768;9.154;2024-01-10T02:11:23;8.13;;;3.40;;
4837;SDS011;2433;48.768;9.154;2024-01-10T02:13:49;1.33;;;1.33;;
4837;SDS011;2433;48.768;9.154;2024-01-10T02:16:17;4.20;;;3.47;;
4837;SDS011;2433;48.768;9.154;2024-01-10T02:18:43;3.88;;;3.63;;
4837;SDS011;2433;48.768;9.154;2024-01-10T02:21:09;3.73;;;3.20;;
4837;SDS011;2433;48.768;9.154;2024-01-10T02:23:34;8.50;;;3.83;;
4837;SDS011;2433;48.768;9.154;2024-01-10T02:26:00;6.10;;;4.20;;
4837;SDS011;2433;48.768;9.154;2024-01-10T02:28:26;5.70;;;2.70;;
4837;SDS011;2433;48.768;9.154;2024-01-10T02:30:51;6.60;;;3.17;;
4837;SDS011;2433;48.768;9.154;2024-01-10T02:33:18;3.13;;;2.85;;
4837;SDS011;2433;48.768;9.154;2024-01-10T02:35:43;2.47;;;2.30;;
4837;SDS011;2433;48.768;9.154;2024-01-10T02:38:09;3.33;;;2.20;;
4837;SDS011;2433;48.768;9.154;2024-01-10T02:40:35;4.87;;;2.37;;
4837;SDS011;2433;48.768;9.154;2024-01-10T02:43:00;0.63;;;0.40;;
4837;SDS011;2433;48.768;9.154;2024-01-10T02:45:26;2.97;;;1.50;;
4837;SDS011;2433;48.768;9.154;2024-01-10T02:47:52;4.30;;;3.50;;
4837;SDS011;2433;48.768;9.154;2024-01-10T02:50:17;7.53;;;3.13;;
4837;SDS011;2433;48.768;9.154;2024-01-10T02:52:43;4.60;;;4.20;;
4837;SDS011;2433;48.768;9.154;2024-01-10T02:55:09;6.63;;;3.83;;
4837;SDS011;2433;48.768;9.154;2024-01-10T02:57:34;10.10;;;4.20;;
4837;SDS011;2433;48.768;9.154;2024-01-10T03:00:00;6.60;;;3.00;;
4837;SDS011;2433;48.768;9.154;2024-01-10T03:02:25;4.37;;;2.60;;
4837;SDS011;2433;48.768;9.154;2024-01-10T03:04:51;4.03;;;3.73;;
4837;SDS011;2433;48.768;9.154;2024-01-10T03:07:16;9.43;;;4.03;;
4837;SDS011;2433;48.768;9.154;2024-01-10T03:09:42;5.63;;;3.10;;
4837;SDS011;2433;48.768;9.154;2024-01-10T03:12:09;7.40;;;4.25;;
4837;SDS011;2433;48.768;9.154;2024-01-10T03:14:34;7.43;;;3.42;;
4837;SDS011;2433;48.768;9.154;2024-01-10T03:17:00;2.90;;;2.60;;
4837;SDS011;2433;48.768;9.154;2024-01-10T03:19:26;9.47;;;5.93;;
4837;SDS011;2433;48.768;9.154;2024-01-10T03:21:51;4.90;;;4.63;;
4837;SDS011;2433;48.768;9.154;2024-01-10T03:24:16;2.43;;;1.73;;
4837;SDS011;2433;48.768;9.154;2024-01-10T03:26:42;3.40;;;1.80;;
4837;SDS011;2433;48.768;9.154;2024-01-10T03:29:08;7.95;;;3.28;;
4837;SDS011;2433;48.768;9.154;2024-01-10T03:31:34;6.53;;;4.40;;
4837;SDS011;2433;48.768;9.154;2024-01-10T03:33:59;7.77;;;3.20;;
4837;SDS011;2433;48.768;9.154;2024-01-10T03:36:25;11.17;;;4.10;;
4837;SDS011;2433;48.768;9.154;2024-01-10T03:38:50;6.60;;;3.50;;
4837;SDS011;2433;48.768;9.154;2024-01-10T03:41:19;3.00;;;2.50;;
4837;SDS011;2433;48.768;9.154;2024-01-10T03:43:45;4.25;;;3.35;;
4837;SDS011;2433;48.768;9.154;2024-01-10T03:46:12;4.05;;;2.90;;
4837;SDS011;2433;48.768;9.154;2024-01-10T03:48:38;6.20;;;4.60;;
4837;SDS011;2433;48.768;9.154;2024-01-10T03:51:12;4.57;;;3.40;;
4837;SDS011;2433;48.768;9.154;2024-01-10T03:53:41;5.88;;;3.53;;
4837;SDS011;2433;48.768;9.154;2024-01-10T03:56:07;6.30;;;1.77;;
4837;SDS011;2433;48.768;9.154;2024-01-10T03:58:33;6.77;;;3.57;;
4837;SDS011;2433;48.768;9.154;2024-01-10T04:00:59;4.63;;;3.33;;
4837;SDS011;2433;48.768;9.154;2024-01-10T04:03:24;6.20;;;2.93;;
4837;SDS011;2433;48.768;9.154;2024-01-10T04:05:50;5.30;;;3.63;;
4837;SDS011;2433;48.768;9.154;2024-01-10T04:08:15;7.70;;;3.93;;
4837;SDS011;2433;48.768;9.154;2024-01-10T04:10:41;6.17;;;3.37;;
4837;SDS011;2433;48.768;9.154;2024-01-10T04:13:06;3.60;;;3.10;;
4837;SDS011;2433;48.768;9.154;2024-01-10T04:15:32;2.83;;;2.57;;
4837;SDS011;2433;48.768;9.154;2024-01-10T04:18:00;15.50;;;3.40;;
4837;SDS011;2433;48.768;9.154;2024-01-10T04:20:25;5.80;;;4.67;;
4837;SDS011;2433;48.768;9.154;2024-01-10T04:22:51;7.70;;;4.63;;
4837;SDS011;2433;48.768;9.154;2024-01-10T04:25:16;4.47;;;4.03;;
4837;SDS011;2433;48.768;9.154;2024-01-10T04:27:42;13.00;;;4.00;;
4837;SDS011;2433;48.768;9.154;2024-01-10T04:30:07;4.60;;;2.97;;
4837;SDS011;2433;48.768;9.154;2024-01-10T04:32:33;7.90;;;5.07;;
4837;SDS011;2433;48.768;9.154;2024-01-10T04:35:00;4.93;;;2.53;;
4837;SDS011;2433;48.768;9.154;2024-01-10T04:37:25;4.70;;;2.40;;
4837;SDS011;2433;48.768;9.154;2024-01-10T04:39:51;6.15;;;3.47;;
4837;SDS011;2433;48.768;9.154;2024-01-10T04:42:17;8.20;;;3.55;;
4837;SDS011;2433;48.768;9.154;2024-01-10T04:44:43;6.43;;;3.23;;
4837;SDS011;2433;48.768;9.154;2024-01-10T04:47:08;10.03;;;4.93;;
4837;SDS011;2433;48.768;9.154;2024-01-10T04:49:34;7.10;;;4.63;;
4837;SDS011;2433;48.768;9.154;2024-01-10T04:51:59;4.90;;;4.37;;
4837;SDS011;2433;48.768;9.154;2024-01-10T04:54:25;5.87;;;4.00;;
4837;SDS011;2433;48.768;9.154;2024-01-10T04:56:51;7.83;;;3.70;;
4837;SDS011;2433;48.768;9.154;2024-01-10T04:59:16;8.50;;;5.90;;
4837;SDS011;2433;48.768;9.154;2024-01-10T05:01:42;4.20;;;2.87;;
4837;SDS011;2433;48.768;9.154;2024-01-10T05:04:07;5.60;;;3.80;;
4837;SDS011;2433;48.768;9.154;2024-01-10T05:06:33;7.93;;;4.37;;
4837;SDS011;2433;48.768;9.154;2024-01-10T05:08:58;8.70;;;4.10;;
4837;SDS011;2433;48.768;9.154;2024-01-10T05:11:24;6.30;;;5.70;;
4837;SDS011;2433;48.768;9.154;2024-01-10T05:13:53;4.35;;;3.00;;
4837;SDS011;2433;48.768;9.154;2024-01-10T05:16:18;4.53;;;4.03;;
4837;SDS011;2433;48.768;9.154;2024-01-10T05:18:44;9.00;;;4.73;;
4837;SDS011;2433;48.768;9.154;2024-01-10T05:21:10;8.20;;;4.27;;
4837;SDS011;2433;48.768;9.154;2024-01-10T05:23:35;11.83;;;4.50;;
4837;SDS011;2433;48.768;9.154;2024-01-10T05:26:04;12.05;;;5.45;;
4837;SDS011;2433;48.768;9.154;2024-01-10T05:28:29;4.90;;;3.20;;
4837;SDS011;2433;48.768;9.154;2024-01-10T05:30:55;3.40;;;3.10;;
4837;SDS011;2433;48.768;9.154;2024-01-10T05:33:20;5.27;;;3.50;;
4837;SDS011;2433;48.768;9.154;2024-01-10T05:35:46;10.20;;;3.63;;
4837;SDS011;2433;48.768;9.154;2024-01-10T05:38:12;6.50;;;3.77;;
4837;SDS011;2433;48.768;9.154;2024-01-10T05:40:37;7.73;;;4.40;;
4837;SDS011;2433;48.768;9.154;2024-01-10T05:43:03;8.10;;;4.23;;
4837;SDS011;2433;48.768;9.154;2024-01-10T05:45:29;6.80;;;3.97;;
4837;SDS011;2433;48.768;9.154;2024-01-10T05:47:55;9.10;;;5.33;;
4837;SDS011;2433;48.768;9.154;2024-01-10T05:50:21;6.83;;;4.27;;
4837;SDS011;2433;48.768;9.154;2024-01-10T05:52:47;4.67;;;4.27;;
4837;SDS011;2433;48.768;9.154;2024-01-10T05:55:13;11.25;;;4.97;;
4837;SDS011;2433;48.768;9.154;2024-01-10T05:57:39;5.37;;;4.47;;
4837;SDS011;2433;48.768;9.154;2024-01-10T06:00:06;5.35;;;4.60;;
4837;SDS011;2433;48.768;9.154;2024-01-10T06:02:41;6.93;;;4.25;;
4837;SDS011;2433;48.768;9.154;2024-01-10T06:07:39;6.32;;;4.85;;
4837;SDS011;2433;48.768;9.154;2024-01-10T06:10:06;4.20;;;3.53;;
4837;SDS011;2433;48.768;9.154;2024-01-10T06:12:31;6.13;;;3.05;;
4837;SDS011;2433;48.768;9.154;2024-01-10T06:14:57;6.50;;;3.37;;
4837;SDS011;2433;48.768;9.154;2024-01-10T06:17:23;6.97;;;5.00;;
4837;SDS011;2433;48.768;9.154;2024-01-10T06:19:49;11.70;;;5.88;;
4837;SDS011;2433;48.768;9.154;2024-01-10T06:22:15;2.27;;;2.17;;
4837;SDS011;2433;48.768;9.154;2024-01-10T06:24:41;10.20;;;4.45;;
4837;SDS011;2433;48.768;9.154;2024-01-10T06:27:08;6.50;;;4.55;;
4837;SDS011;2433;48.768;9.154;2024-01-10T06:29:35;6.80;;;3.50;;
4837;SDS011;2433;48.768;9.154;2024-01-10T06:32:02;13.77;;;5.07;;
4837;SDS011;2433;48.768;9.154;2024-01-10T06:34:32;10.80;;;6.20;;
4837;SDS011;2433;48.768;9.154;2024-01-10T06:36:58;11.10;;;4.87;;
4837;SDS011;2433;48.768;9.154;2024-01-10T06:39:23;11.60;;;5.97;;
4837;SDS011;2433;48.768;9.154;2024-01-10T06:41:49;8.55;;;5.45;;
4837;SDS011;2433;48.768;9.154;2024-01-10T06:44:15;12.70;;;6.77;;
4837;SDS011;2433;48.768;9.154;2024-01-10T06:46:43;4.40;;;4.00;;
4837;SDS011;2433;48.768;9.154;2024-01-10T06:49:09;5.63;;;3.38;;
4837;SDS011;2433;48.768;9.154;2024-01-10T06:51:35;8.55;;;4.78;;
4837;SDS011;2433;48.768;9.154;2024-01-10T06:54:01;3.97;;;3.57;;
4837;SDS011;2433;48.768;9.154;2024-01-10T06:56:29;9.15;;;4.60;;
4837;SDS011;2433;48.768;9.154;2024-01-10T06:58:56;5.32;;;4.35;;
4837;SDS011;2433;48.768;9.154;2024-01-10T07:01:22;7.32;;;3.63;;
4837;SDS011;2433;48.768;9.154;2024-01-10T07:03:48;14.83;;;7.27;;
4837;SDS011;2433;48.768;9.154;2024-01-10T07:06:14;4.13;;;3.53;;
4837;SDS011;2433;48.768;9.154;2024-01-10T07:08:42;4.35;;;3.95;;
4837;SDS011;2433;48.768;9.154;2024-01-10T07:11:09;4.22;;;3.83;;
4837;SDS011;2433;48.768;9.154;2024-01-10T07:13:36;6.93;;;4.65;;
4837;SDS011;2433;48.768;9.154;2024-01-10T07:16:02;16.33;;;6.30;;
4837;SDS011;2433;48.768;9.154;2024-01-10T07:18:28;8.90;;;4.88;;
4837;SDS011;2433;48.768;9.154;2024-01-10T07:20:54;8.38;;;4.38;;
4837;SDS011;2433;48.768;9.154;2024-01-10T07:23:20;7.00;;;3.90;;
4837;SDS011;2433;48.768;9.154;2024-01-10T07:25:46;5.57;;;3.47;;
4837;SDS011;2433;48.768;9.154;2024-01-10T07:28:11;12.47;;;5.60;;
4837;SDS011;2433;48.768;9.154;2024-01-10T07:30:37;12.23;;;7.83;;
4837;SDS011;2433;48.768;9.154;2024-01-10T07:33:03;11.90;;;5.47;;
4837;SDS011;2433;48.768;9.154;2024-01-10T07:35:28;8.83;;;6.93;;
4837;SDS011;2433;48.768;9.154;2024-01-10T07:37:55;12.18;;;7.95;;
4837;SDS011;2433;48.768;9.154;2024-01-10T07:40:21;8.53;;;5.63;;
4837;SDS011;2433;48.768;9.154;2024-01-10T07:42:47;9.52;;;4.95;;
4837;SDS011;2433;48.768;9.154;2024-01-10T07:45:13;13.07;;;5.67;;
4837;SDS011;2433;48.768;9.154;2024-01-10T07:47:39;10.77;;;4.50;;
4837;SDS011;2433;48.768;9.154;2024-01-10T07:50:08;16.40;;;8.87;;
4837;SDS011;2433;48.768;9.154;2024-01-10T07:52:34;8.07;;;5.35;;
4837;SDS011;2433;48.768;9.154;2024-01-10T07:55:00;8.77;;;5.37;;
4837;SDS011;2433;48.768;9.154;2024-01-10T07:57:26;4.35;;;3.95;;
4837;SDS011;2433;48.768;9.154;2024-01-10T07:59:52;9.75;;;4.22;;
4837;SDS011;2433;48.768;9.154;2024-01-10T08:02:18;11.82;;;7.13;;
4837;SDS011;2433;48.768;9.154;2024-01-10T08:04:44;4.97;;;4.47;;
4837;SDS011;2433;48.768;9.154;2024-01-10T08:07:10;10.23;;;5.20;;
4837;SDS011;2433;48.768;9.154;2024-01-10T08:09:36;8.88;;;4.88;;
4837;SDS011;2433;48.768;9.154;2024-01-10T08:12:02;6.03;;;4.90;;
4837;SDS011;2433;48.768;9.154;2024-01-10T08:14:31;7.10;;;4.38;;
4837;SDS011;2433;48.768;9.154;2024-01-10T08:16:56;13.23;;;5.07;;
4837;SDS011;2433;48.768;9.154;2024-01-10T08:19:24;7.38;;;4.43;;
4837;SDS011;2433;48.768;9.154;2024-01-10T08:21:53;9.10;;;6.30;;
4837;SDS011;2433;48.768;9.154;2024-01-10T08:24:19;8.48;;;5.30;;
4837;SDS011;2433;48.768;9.154;2024-01-10T08:26:46;9.35;;;5.13;;
4837;SDS011;2433;48.768;9.154;2024-01-10T08:29:12;14.27;;;7.80;;
4837;SDS011;2433;48.768;9.154;2024-01-10T08:31:37;5.50;;;4.47;;
4837;SDS011;2433;48.768;9.154;2024-01-10T08:34:04;6.72;;;4.57;;
4837;SDS011;2433;48.768;9.154;2024-01-10T08:36:29;5.27;;;3.50;;
4837;SDS011;2433;48.768;9.154;2024-01-10T08:38:55;7.27;;;5.93;;
4837;SDS011;2433;48.768;9.154;2024-01-10T08:41:20;4.47;;;3.90;;
4837;SDS011;2433;48.768;9.154;2024-01-10T08:43:46;7.77;;;6.30;;
4837;SDS011;2433;48.768;9.154;2024-01-10T08:46:12;12.82;;;6.18;;
4837;SDS011;2433;48.768;9.154;2024-01-10T08:48:37;8.57;;;4.90;;
4837;SDS011;2433;48.768;9.154;2024-01-10T08:51:03;8.10;;;4.73;;
4837;SDS011;2433;48.768;9.154;2024-01-10T08:53:29;13.43;;;6.72;;
4837;SDS011;2433;48.768;9.154;2024-01-10T08:55:55;13.95;;;6.82;;
4837;SDS011;2433;48.768;9.154;2024-01-10T08:58:21;6.13;;;3.47;;
4837;SDS011;2433;48.768;9.154;2024-01-10T09:00:46;16.50;;;7.50;;
4837;SDS011;2433;48.768;9.154;2024-01-10T09:03:12;6.70;;;4.87;;
4837;SDS011;2433;48.768;9.154;2024-01-10T09:05:37;11.37;;;5.70;;
4837;SDS011;2433;48.768;9.154;2024-01-10T09:08:03;7.10;;;6.30;;
4837;SDS011;2433;48.768;9.154;2024-01-10T09:10:29;11.00;;;7.07;;
4837;SDS011;2433;48.768;9.154;2024-01-10T09:12:54;13.30;;;5.57;;
4837;SDS011;2433;48.768;9.154;2024-01-10T09:15:20;11.17;;;7.30;;
4837;SDS011;2433;48.768;9.154;2024-01-10T09:17:45;9.83;;;4.63;;
4837;SDS011;2433;48.768;9.154;2024-01-10T09:20:11;8.30;;;5.80;;
4837;SDS011;2433;48.768;9.154;2024-01-10T09:22:38;11.50;;;6.07;;
4837;SDS011;2433;48.768;9.154;2024-01-10T09:25:05;12.18;;;7.80;;
4837;SDS011;2433;48.768;9.154;2024-01-10T09:27:31;10.88;;;6.95;;
4837;SDS011;2433;48.768;9.154;2024-01-10T09:29:57;9.20;;;7.68;;
4837;SDS011;2433;48.768;9.154;2024-01-10T09:32:23;9.50;;;6.43;;
4837;SDS011;2433;48.768;9.154;2024-01-10T09:34:48;12.30;;;6.50;;
4837;SDS011;2433;48.768;9.154;2024-01-10T09:37:14;14.37;;;6.47;;
4837;SDS011;2433;48.768;9.154;2024-01-10T09:39:40;15.00;;;6.93;;
4837;SDS011;2433;48.768;9.154;2024-01-10T09:42:05;12.53;;;6.47;;
4837;SDS011;2433;48.768;9.154;2024-01-10T09:44:31;12.70;;;7.47;;
4837;SDS011;2433;48.768;9.154;2024-01-10T09:46:58;9.30;;;6.43;;
4837;SDS011;2433;48.768;9.154;2024-01-10T09:49:24;10.63;;;6.60;;
4837;SDS011;2433;48.768;9.154;2024-01-10T09:51:50;11.43;;;6.28;;
4837;SDS011;2433;48.768;9.154;2024-01-10T09:54:19;13.77;;;8.30;;
4837;SDS011;2433;48.768;9.154;2024-01-10T09:56:46;9.10;;;7.40;;
4837;SDS011;2433;48.768;9.154;2024-01-10T09:59:12;13.57;;;9.68;;
4837;SDS011;2433;48.768;9.154;2024-01-10T10:01:38;12.90;;;7.57;;
4837;SDS011;2433;48.768;9.154;2024-01-10T10:04:04;10.60;;;6.25;;
4837;SDS011;2433;48.768;9.154;2024-01-10T10:06:33;10.85;;;5.88;;
4837;SDS011;2433;48.768;9.154;2024-01-10T10:08:59;8.32;;;5.22;;
4837;SDS011;2433;48.768;9.154;2024-01-10T10:11:25;12.43;;;7.77;;
4837;SDS011;2433;48.768;9.154;2024-01-10T10:13:51;9.33;;;6.50;;
4837;SDS011;2433;48.768;9.154;2024-01-10T10:16:22;7.13;;;3.83;;
4837;SDS011;2433;48.768;9.154;2024-01-10T10:18:50;6.63;;;5.95;;
4837;SDS011;2433;48.768;9.154;2024-01-10T10:21:16;12.90;;;5.00;;
4837;SDS011;2433;48.768;9.154;2024-01-10T10:23:42;11.87;;;8.13;;
4837;SDS011;2433;48.768;9.154;2024-01-10T10:26:15;9.75;;;7.10;;
4837;SDS011;2433;48.768;9.154;2024-01-10T10:28:48;9.68;;;7.30;;
4837;SDS011;2433;48.768;9.154;2024-01-10T10:31:15;9.77;;;6.18;;
4837;SDS011;2433;48.768;9.154;2024-01-10T10:33:42;11.38;;;7.35;;
4837;SDS011;2433;48.768;9.154;2024-01-10T10:36:08;9.23;;;7.10;;
4837;SDS011;2433;48.768;9.154;2024-01-10T10:38:34;14.17;;;8.00;;
4837;SDS011;2433;48.768;9.154;2024-01-10T10:41:03;10.23;;;6.88;;
4837;SDS011;2433;48.768;9.154;2024-01-10T10:43:30;7.53;;;4.43;;
4837;SDS011;2433;48.768;9.154;2024-01-10T10:46:00;10.70;;;7.82;;
4837;SDS011;2433;48.768;9.154;2024-01-10T10:48:26;14.93;;;7.93;;
4837;SDS011;2433;48.768;9.154;2024-01-10T10:51:08;12.73;;;7.22;;
4837;SDS011;2433;48.768;9.154;2024-01-10T10:53:40;10.60;;;7.65;;
4837;SDS011;2433;48.768;9.154;2024-01-10T10:56:09;13.50;;;8.13;;
4837;SDS011;2433;48.768;9.154;2024-01-10T10:58:35;12.43;;;9.60;;
4837;SDS011;2433;48.768;9.154;2024-01-10T11:01:05;10.55;;;7.65;;
4837;SDS011;2433;48.768;9.154;2024-01-10T11:03:34;19.23;;;9.50;;
4837;SDS011;2433;48.768;9.154;2024-01-10T11:06:01;14.77;;;10.13;;
4837;SDS011;2433;48.768;9.154;2024-01-10T11:08:27;12.65;;;8.82;;
4837;SDS011;2433;48.768;9.154;2024-01-10T11:10:55;13.43;;;7.95;;
4837;SDS011;2433;48.768;9.154;2024-01-10T11:13:32;20.42;;;10.30;;
4837;SDS011;2433;48.768;9.154;2024-01-10T11:24:14;14.00;;;9.15;;
4837;SDS011;2433;48.768;9.154;2024-01-10T11:26:40;17.27;;;11.33;;
4837;SDS011;2433;48.768;9.154;2024-01-10T11:29:06;19.10;;;10.20;;
4837;SDS011;2433;48.768;9.154;2024-01-10T11:31:31;13.63;;;8.00;;
4837;SDS011;2433;48.768;9.154;2024-01-10T11:33:58;13.18;;;7.22;;
4837;SDS011;2433;48.768;9.154;2024-01-10T11:36:25;14.27;;;9.00;;
4837;SDS011;2433;48.768;9.154;2024-01-10T11:46:43;17.15;;;9.38;;
4837;SDS011;2433;48.768;9.154;2024-01-10T11:49:12;13.75;;;9.80;;
4837;SDS011;2433;48.768;9.154;2024-01-10T11:51:43;16.85;;;9.20;;
4837;SDS011;2433;48.768;9.154;2024-01-10T11:54:09;16.67;;;8.88;;
4837;SDS011;2433;48.768;9.154;2024-01-10T11:56:39;15.90;;;9.40;;
4837;SDS011;2433;48.768;9.154;2024-01-10T11:59:06;17.73;;;10.90;;
4837;SDS011;2433;48.768;9.154;2024-01-10T12:01:41;12.63;;;8.32;;
4837;SDS011;2433;48.768;9.154;2024-01-10T12:04:07;18.40;;;10.40;;
4837;SDS011;2433;48.768;9.154;2024-01-10T12:06:35;13.90;;;8.30;;
4837;SDS011;2433;48.768;9.154;2024-01-10T12:09:04;15.13;;;10.55;;
4837;SDS011;2433;48.768;9.154;2024-01-10T12:11:40;19.08;;;9.93;;
4837;SDS011;2433;48.768;9.154;2024-01-10T12:14:08;16.10;;;9.50;;
4837;SDS011;2433;48.768;9.154;2024-01-10T12:16:34;12.43;;;10.20;;
4837;SDS011;2433;48.768;9.154;2024-01-10T12:18:59;18.07;;;9.87;;
4837;SDS011;2433;48.768;9.154;2024-01-10T12:21:25;17.73;;;11.53;;
4837;SDS011;2433;48.768;9.154;2024-01-10T12:23:51;17.43;;;8.67;;
4837;SDS011;2433;48.768;9.154;2024-01-10T12:26:19;15.95;;;10.80;;
4837;SDS011;2433;48.768;9.154;2024-01-10T12:28:54;26.00;;;11.83;;
4837;SDS011;2433;48.768;9.154;2024-01-10T12:31:20;13.60;;;8.70;;
4837;SDS011;2433;48.768;9.154;2024-01-10T12:33:48;13.40;;;9.93;;
4837;SDS011;2433;48.768;9.154;2024-01-10T12:36:16;23.55;;;10.70;;
4837;SDS011;2433;48.768;9.154;2024-01-10T12:38:42;17.77;;;11.02;;
4837;SDS011;2433;48.768;9.154;2024-01-10T12:41:08;19.75;;;8.48;;
4837;SDS011;2433;48.768;9.154;2024-01-10T12:43:34;10.77;;;8.70;;
4837;SDS011;2433;48.768;9.154;2024-01-10T12:48:39;14.88;;;9.15;;
4837;SDS011;2433;48.768;9.154;2024-01-10T12:51:12;20.35;;;9.63;;
4837;SDS011;2433;48.768;9.154;2024-01-10T12:53:38;15.55;;;9.48;;
4837;SDS011;2433;48.768;9.154;2024-01-10T12:56:06;17.75;;;9.25;;
4837;SDS011;2433;48.768;9.154;2024-01-10T12:58:33;13.52;;;8.43;;
4837;SDS011;2433;48.768;9.154;2024-01-10T13:01:01;24.40;;;9.73;;
4837;SDS011;2433;48.768;9.154;2024-01-10T13:03:28;18.55;;;10.57;;
4837;SDS011;2433;48.768;9.154;2024-01-10T13:05:54;14.15;;;10.32;;
4837;SDS011;2433;48.768;9.154;2024-01-10T13:08:20;20.30;;;11.70;;
4837;SDS011;2433;48.768;9.154;2024-01-10T13:10:46;17.00;;;8.30;;
4837;SDS011;2433;48.768;9.154;2024-01-10T13:13:12;13.82;;;8.57;;
4837;SDS011;2433;48.768;9.154;2024-01-10T13:15:38;20.90;;;10.97;;
4837;SDS011;2433;48.768;9.154;2024-01-10T13:18:04;20.00;;;10.10;;
4837;SDS011;2433;48.768;9.154;2024-01-10T13:20:29;15.23;;;10.90;;
4837;SDS011;2433;48.768;9.154;2024-01-10T13:22:55;15.57;;;11.07;;
4837;SDS011;2433;48.768;9.154;2024-01-10T13:25:20;19.40;;;10.73;;
4837;SDS011;2433;48.768;9.154;2024-01-10T13:27:52;16.52;;;10.27;;
4837;SDS011;2433;48.768;9.154;2024-01-10T13:30:18;14.70;;;9.15;;
4837;SDS011;2433;48.768;9.154;2024-01-10T13:32:44;17.02;;;9.90;;
4837;SDS011;2433;48.768;9.154;2024-01-10T13:35:13;19.17;;;10.27;;
4837;SDS011;2433;48.768;9.154;2024-01-10T13:37:39;20.25;;;11.07;;
4837;SDS011;2433;48.768;9.154;2024-01-10T13:40:11;17.38;;;10.80;;
4837;SDS011;2433;48.768;9.154;2024-01-10T13:42:40;14.95;;;9.60;;
4837;SDS011;2433;48.768;9.154;2024-01-10T13:45:06;17.50;;;8.87;;
4837;SDS011;2433;48.768;9.154;2024-01-10T13:47:33;13.20;;;7.63;;
4837;SDS011;2433;48.768;9.154;2024-01-10T13:49:59;15.23;;;8.52;;
4837;SDS011;2433;48.768;9.154;2024-01-10T13:52:26;14.23;;;9.88;;
4837;SDS011;2433;48.768;9.154;2024-01-10T13:54:51;14.37;;;7.87;;
4837;SDS011;2433;48.768;9.154;2024-01-10T13:57:18;8.50;;;7.28;;
4837;SDS011;2433;48.768;9.154;2024-01-10T13:59:44;18.92;;;9.20;;
4837;SDS011;2433;48.768;9.154;2024-01-10T14:02:10;6.27;;;3.50;;
4837;SDS011;2433;48.768;9.154;2024-01-10T14:04:36;11.70;;;6.22;;
4837;SDS011;2433;48.768;9.154;2024-01-10T14:07:01;12.60;;;7.90;;
4837;SDS011;2433;48.768;9.154;2024-01-10T14:09:32;14.90;;;8.13;;
4837;SDS011;2433;48.768;9.154;2024-01-10T14:11:58;16.05;;;9.68;;
4837;SDS011;2433;48.768;9.154;2024-01-10T14:14:24;18.27;;;11.18;;
4837;SDS011;2433;48.768;9.154;2024-01-10T14:16:49;12.17;;;6.60;;
4837;SDS011;2433;48.768;9.154;2024-01-10T14:19:15;14.70;;;7.77;;
4837;SDS011;2433;48.768;9.154;2024-01-10T14:21:43;14.75;;;10.10;;
4837;SDS011;2433;48.768;9.154;2024-01-10T14:24:11;10.27;;;9.05;;
4837;SDS011;2433;48.768;9.154;2024-01-10T14:26:36;10.50;;;8.13;;
4837;SDS011;2433;48.768;9.154;2024-01-10T14:29:02;22.70;;;13.07;;
4837;SDS011;2433;48.768;9.154;2024-01-10T14:31:28;22.63;;;10.30;;
4837;SDS011;2433;48.768;9.154;2024-01-10T14:33:54;19.80;;;11.50;;
4837;SDS011;2433;48.768;9.154;2024-01-10T14:36:20;17.17;;;11.32;;
4837;SDS011;2433;48.768;9.154;2024-01-10T14:38:46;15.90;;;9.38;;
4837;SDS011;2433;48.768;9.154;2024-01-10T14:41:12;9.97;;;8.87;;
4837;SDS011;2433;48.768;9.154;2024-01-10T14:43:37;15.37;;;9.63;;
4837;SDS011;2433;48.768;9.154;2024-01-10T14:46:03;9.70;;;7.00;;
4837;SDS011;2433;48.768;9.154;2024-01-10T14:48:31;16.75;;;9.75;;
4837;SDS011;2433;48.768;9.154;2024-01-10T14:50:56;13.85;;;10.48;;
4837;SDS011;2433;48.768;9.154;2024-01-10T14:53:22;18.00;;;10.40;;
4837;SDS011;2433;48.768;9.154;2024-01-10T14:55:48;13.53;;;8.10;;
4837;SDS011;2433;48.768;9.154;2024-01-10T14:58:13;21.23;;;9.93;;
4837;SDS011;2433;48.768;9.154;2024-01-10T15:00:40;15.25;;;9.63;;
4837;SDS011;2433;48.768;9.154;2024-01-10T15:03:08;21.00;;;11.73;;
4837;SDS011;2433;48.768;9.154;2024-01-10T15:05:33;17.50;;;8.53;;
4837;SDS011;2433;48.768;9.154;2024-01-10T15:08:00;17.45;;;8.80;;
4837;SDS011;2433;48.768;9.154;2024-01-10T15:10:26;9.10;;;6.43;;
4837;SDS011;2433;48.768;9.154;2024-01-10T15:12:52;13.95;;;9.05;;
4837;SDS011;2433;48.768;9.154;2024-01-10T15:15:18;19.27;;;12.05;;
4837;SDS011;2433;48.768;9.154;2024-01-10T15:17:44;21.77;;;11.50;;
4837;SDS011;2433;48.768;9.154;2024-01-10T15:20:10;23.30;;;12.80;;
4837;SDS011;2433;48.768;9.154;2024-01-10T15:22:35;19.40;;;11.07;;